Time;durP1;ratioP1;P1;durP2;ratioP2;P2;SDS_P1;SDS_P2;PMS_P1;PMS_P2;Temp;Humidity;BMP_temperature;BMP_pressure;BME280_temperature;BME280_humidity;BME280_pressure;Samples;Min_cycle;Max_cycle;Signal;HPM_P1;HPM_P2
2023/06/22 00:01:22;;;;;;;;;40.00;34.50;;;;;23.49;71.45;101072.61;112208;1263;19895;-37
2023/06/22 00:03:49;;;;;;;;;36.33;31.00;;;;;23.42;71.74;101071.88;112277;1262;19816;-38
2023/06/22 00:06:17;;;;;;;;;38.00;34.00;;;;;23.41;71.64;101069.67;112128;1263;20117;-36
2023/06/22 00:08:44;;;;;;;;;36.50;33.00;;;;;23.41;71.60;101067.81;112236;1263;19939;-36
2023/06/22 00:11:11;;;;;;;;;42.00;36.67;;;;;23.38;71.34;101070.25;112236;1263;20747;-36
2023/06/22 00:13:39;;;;;;;;;39.00;33.00;;;;;23.35;71.48;101073.94;112210;1263;21439;-36
2023/06/22 00:16:06;;;;;;;;;33.00;31.00;;;;;23.35;71.39;101075.24;112169;1263;20174;-36
2023/06/22 00:18:34;;;;;;;;;36.67;33.67;;;;;23.31;71.49;101076.83;112114;1263;20967;-35
2023/06/22 00:21:01;;;;;;;;;37.00;30.00;;;;;23.29;71.34;101076.29;112170;1263;21738;-36
2023/06/22 00:23:33;;;;;;;;;33.00;32.00;;;;;23.30;71.35;101081.31;112134;1248;20235;-36
2023/06/22 00:26:01;;;;;;;;;41.33;36.00;;;;;23.29;71.18;101083.02;112202;1263;20823;-36
2023/06/22 00:28:29;;;;;;;;;43.00;39.67;;;;;23.30;70.91;101090.91;112044;1263;21355;-36
2023/06/22 00:30:56;;;;;;;;;46.33;36.33;;;;;23.29;70.79;101094.13;112206;1263;20086;-36
2023/06/22 00:33:23;;;;;;;;;37.50;35.50;;;;;23.31;70.83;101095.59;112058;1248;19444;-36
2023/06/22 00:35:52;;;;;;;;;40.00;37.00;;;;;23.29;70.59;101094.68;112177;1262;21645;-36
2023/06/22 00:38:20;;;;;;;;;34.00;33.00;;;;;23.27;70.41;101088.08;112279;1263;20283;-36
2023/06/22 00:40:48;;;;;;;;;35.00;34.00;;;;;23.27;70.32;101097.77;112114;1263;19418;-36
2023/06/22 00:43:15;;;;;;;;;31.50;29.50;;;;;23.22;70.09;101092.98;112237;1263;21454;-36
2023/06/22 00:45:43;;;;;;;;;30.67;29.33;;;;;23.21;70.12;101096.91;112126;1263;19917;-37
2023/06/22 00:48:10;;;;;;;;;32.00;29.00;;;;;23.21;69.93;101098.80;112260;1263;19414;-36
2023/06/22 00:50:38;;;;;;;;;32.00;28.00;;;;;23.22;69.82;101096.63;112089;1263;22019;-37
2023/06/22 00:53:07;;;;;;;;;32.00;29.00;;;;;23.19;69.74;101099.19;112264;1255;18689;-36
2023/06/22 00:55:35;;;;;;;;;29.00;28.00;;;;;23.18;69.79;101096.69;112109;1248;181552;-36
2023/06/22 00:58:05;;;;;;;;;35.00;32.00;;;;;23.19;69.53;101089.67;112098;1263;22867;-36
2023/06/22 01:00:32;;;;;;;;;38.33;32.67;;;;;23.13;69.81;101091.06;112069;1248;20198;-36
2023/06/22 01:03:00;;;;;;;;;33.00;32.00;;;;;23.12;69.53;101098.69;112284;1263;20888;-37
2023/06/22 01:05:30;;;;;;;;;30.00;28.00;;;;;23.11;69.68;101103.38;112092;1263;21429;-36
2023/06/22 01:07:57;;;;;;;;;35.00;32.50;;;;;23.09;69.70;101104.91;112106;1263;19877;-37
2023/06/22 01:10:24;;;;;;;;;39.33;34.67;;;;;23.08;69.78;101103.17;112334;1248;19496;-36
2023/06/22 01:12:52;;;;;;;;;32.00;29.50;;;;;23.08;69.79;101096.30;112110;1263;22884;-36
2023/06/22 01:15:20;;;;;;;;;36.00;31.00;;;;;23.04;69.74;101092.98;112296;1263;18690;-37
2023/06/22 01:17:47;;;;;;;;;36.67;35.00;;;;;23.07;69.84;101084.63;112090;1256;20743;-36
2023/06/22 01:20:15;;;;;;;;;38.50;35.00;;;;;23.04;69.92;101080.89;112305;1263;20133;-36
2023/06/22 01:22:42;;;;;;;;;38.00;34.00;;;;;23.03;70.08;101077.89;112121;1248;18805;-37
2023/06/22 01:25:09;;;;;;;;;33.00;29.00;;;;;22.98;70.27;101076.74;112274;1262;20912;-36
2023/06/22 01:27:41;;;;;;;;;35.00;29.00;;;;;22.98;70.40;101073.59;112116;1263;20057;-37
2023/06/22 01:30:10;;;;;;;;;34.00;31.50;;;;;23.01;70.27;101072.58;112085;1263;20050;-37
2023/06/22 01:32:37;;;;;;;;;33.50;29.50;;;;;23.04;70.17;101073.09;112125;1263;19440;-36
2023/06/22 01:35:05;;;;;;;;;32.50;31.50;;;;;23.02;70.08;101071.34;112260;1263;20131;-37
2023/06/22 01:37:33;;;;;;;;;34.67;28.67;;;;;23.01;69.82;101074.54;112069;1248;20988;-37
2023/06/22 01:40:00;;;;;;;;;34.00;31.50;;;;;22.94;69.84;101073.21;112233;1263;20822;-37
2023/06/22 01:42:28;;;;;;;;;34.50;31.50;;;;;22.96;69.81;101077.59;112093;1254;22428;-36
2023/06/22 01:44:55;;;;;;;;;30.00;28.50;;;;;22.98;69.59;101080.90;112258;1263;19903;-37
2023/06/22 01:47:23;;;;;;;;;37.00;32.00;;;;;22.98;69.43;101087.20;112119;1263;20575;-36
2023/06/22 01:49:51;;;;;;;;;31.00;28.00;;;;;22.96;69.54;101091.35;112253;1263;21636;-36
2023/06/22 01:52:20;;;;;;;;;36.00;31.50;;;;;22.92;69.52;101088.02;112060;1248;21304;-36
2023/06/22 01:54:48;;;;;;;;;29.00;28.00;;;;;22.89;69.58;101089.99;112111;1263;20791;-37
2023/06/22 01:57:15;;;;;;;;;36.00;33.00;;;;;22.87;69.53;101090.45;112255;1262;21716;-36
2023/06/22 01:59:43;;;;;;;;;36.00;32.00;;;;;22.84;69.45;101090.64;112112;1256;19073;-36
2023/06/22 02:02:10;;;;;;;;;38.00;34.00;;;;;22.80;69.36;101095.02;112274;1262;19807;-36
2023/06/22 02:04:37;;;;;;;;;38.00;34.00;;;;;22.78;69.59;101093.54;112086;1263;21823;-36
2023/06/22 02:07:05;;;;;;;;;38.00;32.00;;;;;22.75;69.56;101090.58;112242;1256;19915;-36
2023/06/22 02:09:32;;;;;;;;;34.50;32.00;;;;;22.74;69.47;101090.73;112086;1263;21030;-36
2023/06/22 02:12:00;;;;;;;;;36.67;34.00;;;;;22.69;69.58;101096.94;112276;1263;21647;-38
2023/06/22 02:14:27;;;;;;;;;34.00;31.00;;;;;22.65;69.59;101090.30;112084;1248;21041;-37
2023/06/22 02:16:56;;;;;;;;;36.00;32.00;;;;;22.62;69.53;101091.52;112269;1263;20909;-38
2023/06/22 02:19:24;;;;;;;;;34.50;33.00;;;;;22.62;69.60;101093.88;112014;1263;21464;-37
2023/06/22 02:21:51;;;;;;;;;38.00;31.00;;;;;22.64;69.46;101088.73;112140;1263;21241;-37
2023/06/22 02:24:19;;;;;;;;;40.00;33.00;;;;;22.63;69.24;101095.77;112200;1263;20777;-37
2023/06/22 02:26:46;;;;;;;;;34.00;31.00;;;;;22.59;69.38;101098.75;112183;1263;21442;-37
2023/06/22 02:29:14;;;;;;;;;38.00;31.67;;;;;22.57;69.51;101102.55;112078;1247;19989;-37
2023/06/22 02:31:41;;;;;;;;;34.00;30.00;;;;;22.58;69.37;101104.39;112151;1263;21451;-37
2023/06/22 02:34:09;;;;;;;;;35.33;33.00;;;;;22.54;69.48;101107.45;112098;1263;20174;-37
2023/06/22 02:36:36;;;;;;;;;42.00;35.50;;;;;22.51;69.39;101114.71;112178;1248;21564;-37
2023/06/22 02:39:04;;;;;;;;;37.00;31.00;;;;;22.51;69.40;101112.45;112071;1263;20857;-37
2023/06/22 02:41:31;;;;;;;;;37.00;35.00;;;;;22.50;69.60;101114.30;112143;1263;21444;-37
2023/06/22 02:43:59;;;;;;;;;39.00;33.00;;;;;22.49;69.41;101116.57;112181;1263;18802;-36
2023/06/22 02:46:26;;;;;;;;;34.50;34.00;;;;;22.47;69.44;101121.73;112160;1263;20967;-37
2023/06/22 02:48:54;;;;;;;;;33.33;31.00;;;;;22.51;69.36;101125.59;112108;1263;21458;-37
2023/06/22 02:51:22;;;;;;;;;34.50;32.00;;;;;22.49;69.34;101127.46;112182;1263;21211;-37
2023/06/22 02:53:52;;;;;;;;;35.00;33.00;;;;;22.49;69.31;101130.64;112281;1263;21969;-37
2023/06/22 02:56:24;;;;;;;;;29.00;27.50;;;;;22.48;69.33;101137.50;112190;1263;20178;-37
2023/06/22 02:58:52;;;;;;;;;33.50;30.50;;;;;22.42;69.43;101140.16;112140;1263;18933;-36
2023/06/22 03:01:24;;;;;;;;;34.00;33.00;;;;;22.38;69.28;101135.70;112220;1263;20766;-36
2023/06/22 03:03:51;;;;;;;;;40.00;34.00;;;;;22.39;69.27;101139.42;112127;1263;22737;-37
2023/06/22 03:06:23;;;;;;;;;36.50;33.00;;;;;22.42;69.03;101141.83;112066;1263;20399;-37
2023/06/22 03:08:50;;;;;;;;;43.50;37.50;;;;;22.37;68.99;101138.46;112216;1262;22258;-36
2023/06/22 03:11:18;;;;;;;;;42.00;36.00;;;;;22.35;68.96;101140.60;112092;1263;20119;-36
2023/06/22 03:13:46;;;;;;;;;43.50;39.00;;;;;22.36;69.04;101147.80;112239;1247;20271;-37
2023/06/22 03:16:13;;;;;;;;;43.00;37.00;;;;;22.34;68.97;101148.87;112084;1263;20792;-36
2023/06/22 03:18:41;;;;;;;;;37.00;34.50;;;;;22.33;68.72;101147.02;112195;1263;21462;-37
2023/06/22 03:21:08;;;;;;;;;39.00;34.00;;;;;22.34;68.63;101146.37;112082;1263;18766;-37
2023/06/22 03:23:36;;;;;;;;;36.00;30.00;;;;;22.34;68.47;101142.21;112218;1263;20943;-37
2023/06/22 03:26:04;;;;;;;;;31.50;31.00;;;;;22.35;68.40;101147.49;112092;1248;21526;-38
2023/06/22 03:28:31;;;;;;;;;32.67;27.67;;;;;22.39;67.99;101150.89;112193;1263;21172;-37
2023/06/22 03:30:58;;;;;;;;;30.50;29.50;;;;;22.36;68.12;101152.48;112049;1248;19542;-37
2023/06/22 03:33:26;;;;;;;;;32.50;31.00;;;;;22.43;67.74;101153.38;112195;1255;21813;-38
2023/06/22 03:35:54;;;;;;;;;34.00;33.00;;;;;22.46;67.55;101159.77;112082;1248;18743;-38
2023/06/22 03:38:21;;;;;;;;;34.00;31.00;;;;;22.43;67.42;101162.86;112176;1263;20810;-38
2023/06/22 03:40:49;;;;;;;;;33.50;29.00;;;;;22.45;67.25;101164.55;112060;1263;21795;-38
2023/06/22 03:43:16;;;;;;;;;33.00;29.33;;;;;22.43;67.28;101166.31;112170;1248;18800;-37
2023/06/22 03:45:45;;;;;;;;;28.00;27.00;;;;;22.41;67.32;101165.54;112057;1248;20806;-38
2023/06/22 03:48:12;;;;;;;;;26.00;24.00;;;;;22.42;67.00;101166.52;112105;1263;21782;-38
2023/06/22 03:50:40;;;;;;;;;25.67;22.00;;;;;22.40;67.01;101167.81;112245;1263;19892;-38
2023/06/22 03:53:07;;;;;;;;;31.50;25.00;;;;;22.37;67.14;101168.63;112122;1247;21029;-38
2023/06/22 03:55:34;;;;;;;;;27.33;25.00;;;;;22.35;66.84;101165.87;112286;1263;20380;-38
2023/06/22 03:58:05;;;;;;;;;27.00;24.00;;;;;22.35;66.77;101172.96;112112;1263;19919;-38
2023/06/22 04:00:32;;;;;;;;;32.50;30.00;;;;;22.35;66.53;101171.91;112088;1263;21035;-38
2023/06/22 04:03:00;;;;;;;;;27.67;27.00;;;;;22.40;66.37;101172.67;112258;1263;21510;-38
2023/06/22 04:05:28;;;;;;;;;33.33;31.67;;;;;22.41;66.29;101170.17;112082;1263;19872;-37
2023/06/22 04:07:56;;;;;;;;;37.00;31.00;;;;;22.40;66.37;101173.31;112198;1255;19455;-37
2023/06/22 04:10:23;;;;;;;;;37.33;32.33;;;;;22.38;66.27;101176.30;112035;1263;20244;-38
2023/06/22 04:12:51;;;;;;;;;31.00;30.00;;;;;22.42;66.25;101178.22;112213;1256;18905;-37
2023/06/22 04:15:18;;;;;;;;;30.00;25.00;;;;;22.44;66.21;101176.72;112075;1263;20998;-37
2023/06/22 04:17:46;;;;;;;;;25.00;24.00;;;;;22.43;66.01;101179.59;112219;1247;21643;-38
2023/06/22 04:20:13;;;;;;;;;32.00;28.00;;;;;22.41;66.17;101188.20;112072;1247;20294;-38
2023/06/22 04:22:40;;;;;;;;;23.00;23.00;;;;;22.39;66.24;101184.52;112239;1256;19783;-37
2023/06/22 04:25:08;;;;;;;;;30.00;26.00;;;;;22.35;66.31;101183.73;112102;1263;21467;-37
2023/06/22 04:27:37;;;;;;;;;21.67;20.00;;;;;22.30;66.30;101186.13;112212;1263;18808;-37
2023/06/22 04:30:04;;;;;;;;;23.33;22.33;;;;;22.28;66.50;101187.80;112116;1263;19430;-37
2023/06/22 04:32:31;;;;;;;;;23.00;22.00;;;;;22.30;66.38;101190.13;112140;1263;21466;-37
2023/06/22 04:35:00;;;;;;;;;27.00;21.00;;;;;22.28;66.36;101193.27;112102;1263;20160;-37
2023/06/22 04:37:27;;;;;;;;;20.00;20.00;;;;;22.23;66.54;101198.98;112087;1255;20984;-37
2023/06/22 04:39:55;;;;;;;;;19.00;17.33;;;;;22.23;66.55;101195.53;112252;1263;21552;-38
2023/06/22 04:42:22;;;;;;;;;26.00;24.00;;;;;22.26;66.42;101195.77;112140;1263;18739;-38
2023/06/22 04:44:50;;;;;;;;;29.00;26.00;;;;;22.27;66.58;101192.31;112266;1263;20978;-38
2023/06/22 04:47:17;;;;;;;;;25.00;24.00;;;;;22.29;66.35;101194.13;112136;1263;20369;-37
2023/06/22 04:49:44;;;;;;;;;24.00;20.00;;;;;22.36;66.23;101198.60;112291;1263;21415;-37
2023/06/22 04:52:12;;;;;;;;;20.00;17.00;;;;;22.37;66.08;101198.42;112133;1263;21053;-38
2023/06/22 04:54:47;;;;;;;;;22.33;19.67;;;;;22.43;66.02;101194.34;112272;1248;22757;-38
2023/06/22 04:57:14;;;;;;;;;20.67;20.00;;;;;22.41;66.00;101194.69;112306;1247;19984;-37
2023/06/22 04:59:42;;;;;;;;;25.00;18.50;;;;;22.36;65.96;101195.09;112090;1263;22130;-37
2023/06/22 05:02:09;;;;;;;;;26.50;22.00;;;;;22.45;65.77;101197.13;112322;1247;22265;-37
2023/06/22 05:04:38;;;;;;;;;26.00;23.00;;;;;22.47;65.53;101189.40;112124;1263;21272;-37
2023/06/22 05:07:05;;;;;;;;;23.00;20.00;;;;;22.53;65.49;101188.18;112214;1262;20754;-38
2023/06/22 05:09:34;;;;;;;;;17.00;16.00;;;;;22.52;65.33;101190.17;112082;1263;21444;-38
2023/06/22 05:12:02;;;;;;;;;19.00;17.00;;;;;22.50;65.42;101190.14;112155;1263;19902;-37
2023/06/22 05:14:30;;;;;;;;;18.00;17.00;;;;;22.51;65.56;101192.42;112252;1263;19667;-38
2023/06/22 05:16:58;;;;;;;;;17.00;14.50;;;;;22.52;65.47;101193.38;112098;1263;21785;-38
2023/06/22 05:19:33;;;;;;;;;20.00;18.00;;;;;22.56;65.30;101188.55;112198;1263;18775;-38
2023/06/22 05:22:00;;;;;;;;;20.33;19.33;;;;;22.54;65.28;101190.84;112272;1247;19484;-38
2023/06/22 05:24:28;;;;;;;;;492.50;492.00;;;;;22.56;65.28;101198.23;112110;1263;21445;-38
2023/06/22 05:26:55;;;;;;;;;32.50;30.00;;;;;22.64;65.25;101198.06;112275;1263;18780;-38
2023/06/22 05:29:23;;;;;;;;;27.00;23.50;;;;;22.72;64.97;101200.67;112066;1263;19463;-38
2023/06/22 05:31:50;;;;;;;;;20.00;20.00;;;;;22.67;65.10;101202.39;112248;1263;21975;-38
2023/06/22 05:34:18;;;;;;;;;20.50;20.00;;;;;22.75;65.10;101204.26;112084;1263;18737;-38
2023/06/22 05:36:45;;;;;;;;;23.00;21.50;;;;;22.84;64.94;101213.38;112277;1247;19484;-38
2023/06/22 05:39:13;;;;;;;;;22.50;20.00;;;;;22.86;64.89;101220.44;112110;1255;21442;-39
2023/06/22 05:41:40;;;;;;;;;21.00;20.50;;;;;22.82;64.85;101229.80;112208;1263;18920;-39
2023/06/22 05:44:08;;;;;;;;;22.00;20.00;;;;;22.78;64.86;101234.55;112120;1263;20738;-38
2023/06/22 05:46:35;;;;;;;;;18.67;18.00;;;;;22.85;64.96;101226.43;112235;1263;20417;-37
2023/06/22 05:49:03;;;;;;;;;16.50;16.00;;;;;22.88;64.94;101228.74;112072;1263;20246;-35
2023/06/22 05:51:30;;;;;;;;;23.00;21.00;;;;;22.99;64.77;101228.45;112249;1262;20674;-38
2023/06/22 05:53:58;;;;;;;;;27.00;22.00;;;;;23.14;64.44;101233.79;112111;1263;21712;-38
2023/06/22 05:56:25;;;;;;;;;23.00;19.00;;;;;23.26;64.01;101229.86;112256;1263;19081;-38
2023/06/22 05:58:53;;;;;;;;;21.00;18.00;;;;;23.36;63.86;101232.48;112128;1254;19508;-38
2023/06/22 06:01:20;;;;;;;;;16.00;15.50;;;;;23.47;63.52;101236.78;112234;1263;21414;-39
2023/06/22 06:03:49;;;;;;;;;17.00;16.00;;;;;23.56;63.22;101242.38;112082;1263;20246;-38
2023/06/22 06:06:16;;;;;;;;;18.67;18.00;;;;;23.68;63.44;101245.70;112152;1262;21116;-38
2023/06/22 06:08:44;;;;;;;;;15.00;14.00;;;;;23.73;63.03;101247.00;112052;1262;21968;-38
2023/06/22 06:11:11;;;;;;;;;16.33;14.67;;;;;23.71;62.90;101236.64;112157;1247;19804;-38
2023/06/22 06:13:39;;;;;;;;;19.00;18.00;;;;;23.74;62.73;101233.27;112052;1263;19401;-38
2023/06/22 06:16:06;;;;;;;;;16.67;16.00;;;;;23.71;62.68;101235.30;112188;1257;21838;-38
2023/06/22 06:18:34;;;;;;;;;20.00;18.00;;;;;23.78;62.66;101230.57;112063;1263;19001;-38
2023/06/22 06:21:01;;;;;;;;;16.00;15.00;;;;;23.82;62.31;101226.89;112169;1263;21245;-38
2023/06/22 06:23:29;;;;;;;;;15.50;15.50;;;;;23.87;62.29;101228.19;112082;1263;21448;-38
2023/06/22 06:25:56;;;;;;;;;18.33;17.33;;;;;23.90;62.14;101224.91;112189;1248;18803;-38
2023/06/22 06:28:24;;;;;;;;;23.50;19.50;;;;;23.94;61.93;101224.76;112073;1263;19796;-38
2023/06/22 06:30:51;;;;;;;;;18.00;16.00;;;;;23.97;61.80;101220.39;112157;1263;21743;-38
2023/06/22 06:33:19;;;;;;;;;20.50;19.50;;;;;23.99;61.55;101218.68;112054;1263;19928;-38
2023/06/22 06:35:46;;;;;;;;;18.00;16.00;;;;;24.05;61.44;101224.31;112153;1263;21160;-38
2023/06/22 06:38:14;;;;;;;;;15.00;13.00;;;;;24.11;61.17;101226.09;112045;1262;20022;-37
2023/06/22 06:40:41;;;;;;;;;16.00;15.00;;;;;24.14;61.01;101225.16;112030;1249;19833;-38
2023/06/22 06:43:09;;;;;;;;;17.33;15.67;;;;;24.14;61.10;101227.27;112061;1247;20708;-38
2023/06/22 06:45:36;;;;;;;;;15.00;12.00;;;;;24.11;60.88;101216.61;112151;1263;21980;-38
2023/06/22 06:48:04;;;;;;;;;16.00;15.00;;;;;24.13;60.83;101218.20;112040;1263;20284;-38
2023/06/22 06:50:31;;;;;;;;;13.00;13.00;;;;;24.10;60.61;101225.52;112204;1263;19421;-38
2023/06/22 06:52:59;;;;;;;;;12.50;12.00;;;;;24.06;60.49;101231.23;112134;1256;20325;-38
2023/06/22 06:55:28;;;;;;;;;12.50;12.50;;;;;24.12;60.32;101235.12;112176;1263;18755;-38
2023/06/22 06:57:56;;;;;;;;;15.00;15.00;;;;;24.18;60.22;101235.89;112222;1263;20775;-39
2023/06/22 07:00:23;;;;;;;;;15.50;15.00;;;;;24.23;60.07;101232.64;112092;1263;20130;-38
2023/06/22 07:02:50;;;;;;;;;13.00;12.00;;;;;24.28;60.24;101230.27;112242;1263;19374;-38
2023/06/22 07:05:18;;;;;;;;;14.33;14.33;;;;;24.35;60.18;101231.19;112108;1263;20782;-38
2023/06/22 07:07:46;;;;;;;;;13.67;13.67;;;;;24.35;60.06;101228.95;112216;1263;21793;-40
2023/06/22 07:10:15;;;;;;;;;13.00;11.00;;;;;24.40;60.25;101218.81;112076;1263;19011;-39
2023/06/22 07:12:42;;;;;;;;;14.00;13.00;;;;;24.43;60.02;101218.36;112097;1263;21072;-38
2023/06/22 07:15:10;;;;;;;;;16.00;13.00;;;;;24.46;60.07;101215.65;112276;1263;20465;-39
2023/06/22 07:17:39;;;;;;;;;15.50;13.00;;;;;24.47;59.85;101216.98;112089;1263;19892;-38
2023/06/22 07:20:10;;;;;;;;;13.00;13.00;;;;;24.49;59.84;101216.48;112183;1248;20751;-38
2023/06/22 07:22:37;;;;;;;;;12.00;12.00;;;;;24.53;59.79;101213.81;112100;1247;20154;-38
2023/06/22 07:25:09;;;;;;;;;13.00;12.00;;;;;24.56;59.59;101217.73;112283;1263;19907;-38
2023/06/22 07:27:37;;;;;;;;;12.00;11.00;;;;;24.55;59.82;101215.27;112206;1247;20763;-38
2023/06/22 07:30:04;;;;;;;;;15.00;12.50;;;;;24.56;59.73;101217.52;112311;1262;21746;-38
2023/06/22 07:32:32;;;;;;;;;10.00;10.00;;;;;24.57;59.63;101215.89;112116;1263;20238;-38
2023/06/22 07:34:59;;;;;;;;;8.50;8.50;;;;;24.58;59.82;101220.00;112309;1263;19861;-38
2023/06/22 07:37:27;;;;;;;;;9.00;6.00;;;;;24.58;59.73;101220.30;112095;1263;21448;-38
2023/06/22 07:39:58;;;;;;;;;10.67;9.00;;;;;24.59;59.85;101222.10;112246;1248;19966;-38
2023/06/22 07:42:25;;;;;;;;;8.67;8.67;;;;;24.61;59.78;101225.14;112276;1257;21116;-38
2023/06/22 07:44:52;;;;;;;;;9.00;8.00;;;;;24.61;59.88;101225.44;112086;1263;20378;-38
2023/06/22 07:47:20;;;;;;;;;12.00;9.00;;;;;24.63;59.70;101232.17;112293;1263;18746;-38
2023/06/22 07:49:47;;;;;;;;;9.00;8.00;;;;;24.66;59.72;101234.34;112100;1248;21229;-38
2023/06/22 07:52:15;;;;;;;;;8.50;6.00;;;;;24.66;59.71;101233.97;112292;1263;20008;-38
2023/06/22 07:54:42;;;;;;;;;9.00;8.00;;;;;24.64;59.63;101234.37;112134;1247;19585;-38
2023/06/22 07:57:10;;;;;;;;;8.00;8.00;;;;;24.64;59.42;101234.54;112290;1263;20702;-38
2023/06/22 07:59:38;;;;;;;;;8.50;8.00;;;;;24.65;59.47;101246.66;112126;1263;20566;-38
2023/06/22 08:02:05;;;;;;;;;8.00;6.00;;;;;24.66;59.45;101240.93;112275;1263;18851;-38
2023/06/22 08:04:34;;;;;;;;;6.00;5.00;;;;;24.67;59.12;101241.34;112111;1262;19329;-37
2023/06/22 08:07:02;;;;;;;;;6.00;6.00;;;;;24.68;59.14;101240.50;112159;1263;21683;-38
2023/06/22 08:09:29;;;;;;;;;7.00;6.00;;;;;24.68;59.18;101245.36;112179;1248;21167;-38
2023/06/22 08:11:56;;;;;;;;;6.00;6.00;;;;;24.69;59.09;101241.14;112165;1263;20708;-38
2023/06/22 08:14:24;;;;;;;;;6.67;6.00;;;;;24.69;58.81;101241.82;112069;1263;20103;-38
2023/06/22 08:16:51;;;;;;;;;6.00;5.00;;;;;24.71;58.93;101243.77;112175;1263;19745;-38
2023/06/22 08:19:19;;;;;;;;;5.00;5.00;;;;;24.70;58.81;101243.81;112047;1263;19453;-38
2023/06/22 08:21:46;;;;;;;;;8.00;6.00;;;;;24.72;58.81;101247.08;112186;1248;21426;-38
2023/06/22 08:24:14;;;;;;;;;5.00;5.00;;;;;24.72;58.86;101247.63;112069;1263;18853;-38
2023/06/22 08:26:41;;;;;;;;;6.00;6.00;;;;;24.74;58.76;101243.70;112196;1248;20853;-38
2023/06/22 08:29:09;;;;;;;;;5.00;5.00;;;;;24.77;58.95;101244.11;112063;1248;21474;-38
2023/06/22 08:31:36;;;;;;;;;8.50;8.00;;;;;24.81;59.23;101248.34;112186;1248;18635;-38
2023/06/22 08:34:04;;;;;;;;;6.00;6.00;;;;;24.83;59.54;101252.91;112072;1263;19470;-38
2023/06/22 08:36:32;;;;;;;;;6.67;6.00;;;;;24.85;59.85;101252.27;112192;1263;21667;-38
2023/06/22 08:39:01;;;;;;;;;9.00;6.67;;;;;24.87;60.03;101250.98;112336;1256;18833;-38
2023/06/22 08:41:28;;;;;;;;;6.00;6.00;;;;;24.88;59.94;101251.70;112101;1263;20937;-38
2023/06/22 08:43:56;;;;;;;;;6.00;6.00;;;;;24.88;60.12;101251.88;112222;1263;20352;-37
2023/06/22 08:46:29;;;;;;;;;8.00;6.00;;;;;24.87;60.08;101251.79;112129;1256;18733;-38
2023/06/22 08:48:58;;;;;;;;;9.00;8.00;;;;;24.87;60.17;101255.96;112129;1263;21820;-38
2023/06/22 08:51:25;;;;;;;;;9.00;9.00;;;;;24.88;60.42;101252.63;112256;1263;20445;-37
2023/06/22 08:53:52;;;;;;;;;8.00;6.00;;;;;24.87;60.24;101246.69;112106;1263;18719;-37
2023/06/22 08:56:20;;;;;;;;;7.33;7.33;;;;;24.87;60.32;101247.41;112310;1248;19401;-38
2023/06/22 08:58:47;;;;;;;;;6.00;6.00;;;;;24.88;60.08;101249.69;112097;1247;21544;-39
2023/06/22 09:01:15;;;;;;;;;8.00;8.00;;;;;24.89;59.99;101253.98;112297;1263;19579;-38
2023/06/22 09:03:43;;;;;;;;;6.00;6.00;;;;;24.89;60.13;101248.05;112081;1263;19380;-38
2023/06/22 09:06:10;;;;;;;;;5.00;5.00;;;;;24.89;60.05;101253.38;112280;1263;20390;-38
2023/06/22 09:08:38;;;;;;;;;6.00;6.00;;;;;24.90;60.19;101246.50;112106;1263;19579;-39
2023/06/22 09:11:05;;;;;;;;;6.00;6.00;;;;;24.90;60.16;101243.81;112275;1263;19335;-39
2023/06/22 09:13:32;;;;;;;;;7.33;6.00;;;;;24.91;60.35;101248.55;112069;1262;21871;-40
2023/06/22 09:16:00;;;;;;;;;7.33;5.67;;;;;24.92;60.28;101252.79;112269;1263;19601;-38
2023/06/22 09:18:27;;;;;;;;;5.00;4.50;;;;;24.94;60.38;101251.91;112116;1256;22008;-38
2023/06/22 09:20:55;;;;;;;;;5.33;5.33;;;;;24.92;60.15;101247.04;112271;1263;21466;-39
2023/06/22 09:23:23;;;;;;;;;5.00;5.00;;;;;24.89;60.03;101246.31;112128;1251;19620;-39
2023/06/22 09:25:50;;;;;;;;;5.00;4.00;;;;;24.91;59.85;101245.11;112275;1263;20657;-38
2023/06/22 09:28:17;;;;;;;;;5.00;5.00;;;;;24.91;59.75;101242.39;112129;1263;21829;-38
2023/06/22 09:30:45;;;;;;;;;5.00;5.00;;;;;24.93;59.70;101237.35;112287;1262;18543;-38
2023/06/22 09:33:12;;;;;;;;;5.00;5.00;;;;;24.97;59.56;101239.77;112126;1263;21096;-38
2023/06/22 09:35:40;;;;;;;;;5.00;5.00;;;;;24.98;59.48;101240.02;112297;1248;20275;-38
2023/06/22 09:38:07;;;;;;;;;6.00;6.00;;;;;24.97;59.58;101237.60;112149;1263;18946;-38
2023/06/22 09:40:39;;;;;;;;;6.00;6.00;;;;;25.02;59.47;101234.69;112307;1262;20850;-38
2023/06/22 09:43:07;;;;;;;;;8.67;8.00;;;;;24.99;59.44;101227.20;112156;1248;21896;-38
2023/06/22 09:45:34;;;;;;;;;6.00;5.00;;;;;24.97;59.37;101227.27;112215;1247;18748;-38
2023/06/22 09:48:02;;;;;;;;;4.00;4.00;;;;;24.97;59.13;101220.73;112172;1263;20999;-38
2023/06/22 09:50:29;;;;;;;;;5.00;5.00;;;;;24.97;59.09;101220.02;112196;1248;21787;-39
2023/06/22 09:52:57;;;;;;;;;5.00;4.00;;;;;24.98;59.24;101217.30;112151;1263;19585;-38
2023/06/22 09:55:24;;;;;;;;;6.00;5.00;;;;;25.00;60.31;101220.67;112174;1248;21109;-38
2023/06/22 09:57:51;;;;;;;;;5.00;5.00;;;;;25.02;60.47;101222.17;112190;1263;20148;-38
2023/06/22 10:00:19;;;;;;;;;5.00;5.00;;;;;25.02;60.39;101216.86;112054;1263;20682;-38
2023/06/22 10:02:47;;;;;;;;;5.00;5.00;;;;;25.02;60.14;101214.80;112126;1263;20664;-38
2023/06/22 10:05:14;;;;;;;;;5.00;5.00;;;;;25.01;59.97;101219.63;112196;1263;22918;-37
2023/06/22 10:07:43;;;;;;;;;5.00;5.00;;;;;25.00;60.03;101223.33;112233;1263;19925;-38
2023/06/22 10:10:11;;;;;;;;;6.00;5.50;;;;;24.99;59.87;101216.41;112382;1262;20733;-37
2023/06/22 10:12:38;;;;;;;;;8.00;5.00;;;;;25.01;59.65;101217.69;112233;1255;21500;-37
2023/06/22 10:15:06;;;;;;;;;5.00;4.50;;;;;25.01;59.76;101224.07;112249;1263;19512;-38
2023/06/22 10:17:33;;;;;;;;;5.00;5.00;;;;;25.02;59.78;101227.96;112125;1248;20927;-38
2023/06/22 10:20:05;;;;;;;;;4.00;4.00;;;;;25.02;60.03;101226.15;112227;1263;21697;-37
2023/06/22 10:22:32;;;;;;;;;5.00;5.00;;;;;25.05;59.84;101226.67;112147;1247;19801;-38
2023/06/22 10:24:59;;;;;;;;;5.00;5.00;;;;;25.07;59.96;101224.88;112309;1256;19361;-37
2023/06/22 10:27:27;;;;;;;;;5.50;5.50;;;;;25.08;60.00;101226.56;112157;1263;20268;-37
2023/06/22 10:29:54;;;;;;;;;5.00;5.00;;;;;25.08;60.15;101223.59;112312;1263;18702;-38
2023/06/22 10:32:22;;;;;;;;;4.50;4.50;;;;;25.07;60.18;101214.89;112116;1263;20759;-38
2023/06/22 10:34:49;;;;;;;;;5.00;5.00;;;;;25.08;60.23;101215.05;112260;1263;20144;-38
2023/06/22 10:37:17;;;;;;;;;4.00;4.00;;;;;25.09;59.95;101209.60;112163;1263;18719;-38
2023/06/22 10:39:44;;;;;;;;;2.00;2.00;;;;;25.08;59.99;101212.75;112199;1263;19316;-38
2023/06/22 10:42:12;;;;;;;;;5.00;4.00;;;;;25.09;60.00;101214.50;112114;1263;20278;-38
2023/06/22 10:44:41;;;;;;;;;5.00;5.00;;;;;25.10;60.10;101212.98;112173;1263;18827;-38
2023/06/22 10:47:08;;;;;;;;;2.00;2.00;;;;;25.11;59.95;101210.45;112097;1247;20644;-37
2023/06/22 10:49:36;;;;;;;;;4.00;4.00;;;;;25.10;60.00;101207.29;112218;1263;20154;-38
2023/06/22 10:52:03;;;;;;;;;4.00;4.00;;;;;25.10;59.90;101199.44;112116;1263;19366;-38
2023/06/22 10:54:32;;;;;;;;;5.00;4.00;;;;;25.10;59.89;101201.91;112222;1263;21063;-38
2023/06/22 10:56:59;;;;;;;;;4.00;4.00;;;;;25.12;59.85;101199.11;112291;1257;20103;-38
2023/06/22 10:59:28;;;;;;;;;4.00;4.00;;;;;25.14;60.18;101195.39;112144;1263;20655;-39
2023/06/22 11:01:56;;;;;;;;;4.00;4.00;;;;;25.18;59.94;101199.52;112223;1263;19500;-38
2023/06/22 11:04:23;;;;;;;;;5.50;5.00;;;;;25.18;60.03;101197.65;112173;1263;20464;-39
2023/06/22 11:06:50;;;;;;;;;4.00;4.00;;;;;25.20;60.02;101191.17;112260;1262;18697;-39
2023/06/22 11:09:20;;;;;;;;;5.00;5.00;;;;;25.24;60.08;101189.36;112132;1263;20599;-40